Terminal Aerodrome Forecast
Issued by NWS

Home | Current Version | Previous Version | Text Only | Print | Product List | Glossary Off
Versions: 1 2 3 4 5 6 7 8 9 10 11 12 13

595
FTUS43 KOAX 061142
TAFCDR
TAF
KCDR 061142Z 0612/0712 23008KT P6SM SCT250
     FM061700 28012KT P6SM BKN200
     FM070800 29014G22KT P6SM OVC100=

USA.gov is the U.S. government's official web portal to all federal, state and local government web resources and services.